Port Saint Lucie, Florida
Current Conditions -  °F | °C
As of 8:47 AM on Wednesday 26 Nov 2014 (Local Time) from KSUA Reporting Station
Light Rain Light Rain  
Wind Chill: 73°   Ceiling: 700
Heat Index: 73°   Visibility: 3mi
Dew Point: 72°   Wind: 9mph
Humidity: 94%   Direction: 270°W
Pressure: 30.01"   Gusts: NA
Location:  27.32°N, 80.31°W
Report Text: KSUA 261347Z 27008KT 3SM -RABR BKN007 BKN030 OVC070 23/22 A3001
Loading
Personal Weather Stations






























Interactive Weather Map New forecast layout! Learn more

10-Day Weather Forecast

Advertisements
Track Severe Weather on mobile